ADDS TAF Board (Experimental) INFO Settings
IDs: Format: Expanded Condensed

KCLE - Cleveland/Hopkins In, OH, US

Issued at 1134 UTC 29 Jul 2015
Updated at: 1329 UTC 29 Jul 2015
Time1251Z 29/14Z 29/15Z 29/16Z 29/17Z 29/18Z 29/19Z 29/20Z 29/21Z 29/22Z 29/23Z 30/00Z 30/01Z 30/02Z
Type OBS PRVL PRVL PRVL PRVL PRVL PRVL PRVL PRVL PRVL PRVL PRVL PRVL PRVL
VIS 10 >6 >6 >6 >6 >6 >6 >6 >6 >6 >6 >6 >6 >6
CIG -- 250 250 250 250 250 250 250 250 250 250 250 250 250
Cover SCT BKN BKN BKN BKN BKN BKN BKN BKN BKN BKN BKN BKN BKN
FltCat VFR VFR VFR VFR VFR VFR VFR VFR VFR VFR VFR VFR VFR VFR
WX -- -- -- -- -- -- -- -- -- -- VCTS VCTS VCTS --
WDir VRB 170 170 170 170 210 210 210 210 210 240 240 240 260
WSpd 0 6 6 6 6 10 10 10 10 10 8 8 8 6
WGst -- -- -- -- -- -- -- -- -- -- -- -- -- --
R06/24
XWnd VRB -5 -5 -5 -5 -3 -3 -3 -3 -3 1 1 1 3
HWnd VRB -3 -3 -3 -3 -9 -9 -9 -9 -9 -8 -8 -8 -5
R10/28
XWnd VRB -6 -6 -6 -6 -9 -9 -9 -9 -9 -4 -4 -4 -1
HWnd VRB 1 1 1 1 -5 -5 -5 -5 -5 -7 -7 -7 -6

NOTE: TEMPO conditions in [brackets]. Keep in mind TEMPO conditions might be better (lower impact) than prevailing conditions.

Raw TAF
KCLE 291134Z 2912/3018 17006KT P6SM SCT100 BKN250
  FM291800 21010KT P6SM SCT040 BKN250
  FM292300 24008KT P6SM VCTS SCT050CB BKN250
  FM300200 26006KT P6SM BKN250
  FM301400 26012KT P6SM SCT250


Raw METAR
KCLE 291251Z 00000KT 10SM SCT250 26/19 A3001 RMK AO2 SLP156 T02560189
KCLE 291151Z 18003KT 10SM BKN250 23/18 A3000 RMK AO2 SLP151 T02330183 10233 20189 53003
KCLE 291051Z 19003KT 10SM FEW150 BKN250 19/17 A3000 RMK AO2 SLP152 T01890167

METAR Board
Radar Display
Forecast Discussion

TAF Board Legend

Potential Impact
Threat None Slight Moderate High
Visibility (sm) ≥5.1 5.1>X≥3 3>X≥1 <1
Ceiling (100 ft) ≥30.1 30.1>X≥10 10>X≥5 <5
Wind Speed (kt) <10 10≤X<20 20≤X<30 ≥30
Wind Gust (kt) <15 15≤X<25 25≤X<35 ≥35
Weather No Wx Reported VCTS,-TS,-FZRA,SN TS,FZRA +TS,+FZRA,+SN